sensor_id;sensor_type;location;lat;lon;timestamp;temperature;humidity
16521;DHT22;8373;48.110;11.522;2023-03-31T00:01:49;13.10;70.30
16521;DHT22;8373;48.110;11.522;2023-03-31T00:04:17;13.20;70.00
16521;DHT22;8373;48.110;11.522;2023-03-31T00:06:49;13.10;69.50
16521;DHT22;8373;48.110;11.522;2023-03-31T00:09:19;13.10;69.60
16521;DHT22;8373;48.110;11.522;2023-03-31T00:11:46;13.20;69.80
16521;DHT22;8373;48.110;11.522;2023-03-31T00:14:14;13.20;69.70
16521;DHT22;8373;48.110;11.522;2023-03-31T00:16:42;13.20;69.30
16521;DHT22;8373;48.110;11.522;2023-03-31T00:19:11;13.20;69.20
16521;DHT22;8373;48.110;11.522;2023-03-31T00:21:43;13.00;69.10
16521;DHT22;8373;48.110;11.522;2023-03-31T00:24:12;13.00;69.60
16521;DHT22;8373;48.110;11.522;2023-03-31T00:26:39;12.90;69.90
16521;DHT22;8373;48.110;11.522;2023-03-31T00:29:08;13.00;70.20
16521;DHT22;8373;48.110;11.522;2023-03-31T00:31:35;13.10;70.10
16521;DHT22;8373;48.110;11.522;2023-03-31T00:34:04;13.10;69.70
16521;DHT22;8373;48.110;11.522;2023-03-31T00:36:31;13.10;69.30
16521;DHT22;8373;48.110;11.522;2023-03-31T00:39:03;13.10;69.30
16521;DHT22;8373;48.110;11.522;2023-03-31T00:41:34;13.30;69.50
16521;DHT22;8373;48.110;11.522;2023-03-31T00:44:06;13.40;69.00
16521;DHT22;8373;48.110;11.522;2023-03-31T00:46:38;13.50;68.50
16521;DHT22;8373;48.110;11.522;2023-03-31T00:49:13;13.60;67.90
16521;DHT22;8373;48.110;11.522;2023-03-31T00:51:42;13.50;67.80
16521;DHT22;8373;48.110;11.522;2023-03-31T00:54:10;13.50;67.90
16521;DHT22;8373;48.110;11.522;2023-03-31T00:56:41;13.50;67.90
16521;DHT22;8373;48.110;11.522;2023-03-31T00:59:11;13.50;67.70
16521;DHT22;8373;48.110;11.522;2023-03-31T01:01:40;13.50;67.60
16521;DHT22;8373;48.110;11.522;2023-03-31T01:04:09;13.60;67.50
16521;DHT22;8373;48.110;11.522;2023-03-31T01:06:38;13.60;66.80
16521;DHT22;8373;48.110;11.522;2023-03-31T01:09:12;13.60;66.70
16521;DHT22;8373;48.110;11.522;2023-03-31T01:11:43;13.60;66.70
16521;DHT22;8373;48.110;11.522;2023-03-31T01:14:11;13.70;66.50
16521;DHT22;8373;48.110;11.522;2023-03-31T01:16:38;13.60;66.20
16521;DHT22;8373;48.110;11.522;2023-03-31T01:19:12;13.60;66.60
16521;DHT22;8373;48.110;11.522;2023-03-31T01:27:59;13.70;66.50
16521;DHT22;8373;48.110;11.522;2023-03-31T01:34:19;13.80;66.40
16521;DHT22;8373;48.110;11.522;2023-03-31T01:40:33;13.80;66.40
16521;DHT22;8373;48.110;11.522;2023-03-31T01:43:06;13.70;66.50
16521;DHT22;8373;48.110;11.522;2023-03-31T01:45:42;13.60;67.30
16521;DHT22;8373;48.110;11.522;2023-03-31T01:48:13;13.50;67.80
16521;DHT22;8373;48.110;11.522;2023-03-31T01:50:45;13.50;67.70
16521;DHT22;8373;48.110;11.522;2023-03-31T01:53:17;13.40;67.80
16521;DHT22;8373;48.110;11.522;2023-03-31T01:55:51;13.30;67.90
16521;DHT22;8373;48.110;11.522;2023-03-31T01:58:25;13.20;68.70
16521;DHT22;8373;48.110;11.522;2023-03-31T02:01:02;13.20;68.90
16521;DHT22;8373;48.110;11.522;2023-03-31T02:03:32;13.30;69.20
16521;DHT22;8373;48.110;11.522;2023-03-31T02:06:04;13.30;69.10
16521;DHT22;8373;48.110;11.522;2023-03-31T02:08:37;13.30;68.90
16521;DHT22;8373;48.110;11.522;2023-03-31T02:11:07;13.30;68.90
16521;DHT22;8373;48.110;11.522;2023-03-31T02:13:35;13.30;69.00
16521;DHT22;8373;48.110;11.522;2023-03-31T02:16:07;13.40;68.90
16521;DHT22;8373;48.110;11.522;2023-03-31T02:18:37;13.60;68.50
16521;DHT22;8373;48.110;11.522;2023-03-31T02:21:07;13.60;68.00
16521;DHT22;8373;48.110;11.522;2023-03-31T02:23:36;13.40;67.30
16521;DHT22;8373;48.110;11.522;2023-03-31T02:26:08;13.10;67.60
16521;DHT22;8373;48.110;11.522;2023-03-31T02:28:37;13.00;68.20
16521;DHT22;8373;48.110;11.522;2023-03-31T02:31:17;12.90;68.70
16521;DHT22;8373;48.110;11.522;2023-03-31T02:33:45;12.90;69.10
16521;DHT22;8373;48.110;11.522;2023-03-31T02:36:12;12.80;68.90
16521;DHT22;8373;48.110;11.522;2023-03-31T02:38:43;12.60;68.80
16521;DHT22;8373;48.110;11.522;2023-03-31T02:41:13;12.50;69.40
16521;DHT22;8373;48.110;11.522;2023-03-31T02:43:40;12.70;69.70
16521;DHT22;8373;48.110;11.522;2023-03-31T02:46:07;12.80;69.00
16521;DHT22;8373;48.110;11.522;2023-03-31T02:48:36;12.80;68.80
16521;DHT22;8373;48.110;11.522;2023-03-31T02:54:42;12.90;69.00
16521;DHT22;8373;48.110;11.522;2023-03-31T02:57:29;12.80;69.70
16521;DHT22;8373;48.110;11.522;2023-03-31T03:00:05;12.70;69.80
16521;DHT22;8373;48.110;11.522;2023-03-31T03:02:40;12.60;69.70
16521;DHT22;8373;48.110;11.522;2023-03-31T03:05:20;12.60;70.40
16521;DHT22;8373;48.110;11.522;2023-03-31T03:07:57;12.70;70.40
16521;DHT22;8373;48.110;11.522;2023-03-31T03:10:33;12.90;71.00
16521;DHT22;8373;48.110;11.522;2023-03-31T03:13:08;13.10;70.30
16521;DHT22;8373;48.110;11.522;2023-03-31T03:15:44;13.20;70.00
16521;DHT22;8373;48.110;11.522;2023-03-31T03:18:13;13.20;70.10
16521;DHT22;8373;48.110;11.522;2023-03-31T03:20:41;13.30;70.10
16521;DHT22;8373;48.110;11.522;2023-03-31T03:23:13;13.40;69.90
16521;DHT22;8373;48.110;11.522;2023-03-31T03:25:40;13.50;70.00
16521;DHT22;8373;48.110;11.522;2023-03-31T03:28:08;13.50;70.30
16521;DHT22;8373;48.110;11.522;2023-03-31T03:30:35;13.40;70.40
16521;DHT22;8373;48.110;11.522;2023-03-31T03:33:02;13.30;70.40
16521;DHT22;8373;48.110;11.522;2023-03-31T03:35:31;13.20;70.90
16521;DHT22;8373;48.110;11.522;2023-03-31T03:37:58;13.10;71.70
16521;DHT22;8373;48.110;11.522;2023-03-31T03:40:25;13.00;72.20
16521;DHT22;8373;48.110;11.522;2023-03-31T03:42:51;12.90;72.90
16521;DHT22;8373;48.110;11.522;2023-03-31T03:45:20;12.90;73.90
16521;DHT22;8373;48.110;11.522;2023-03-31T03:47:46;12.80;74.80
16521;DHT22;8373;48.110;11.522;2023-03-31T03:50:14;12.80;75.70
16521;DHT22;8373;48.110;11.522;2023-03-31T03:52:40;12.80;76.20
16521;DHT22;8373;48.110;11.522;2023-03-31T03:55:08;12.80;76.70
16521;DHT22;8373;48.110;11.522;2023-03-31T03:57:36;12.90;76.90
16521;DHT22;8373;48.110;11.522;2023-03-31T04:00:04;12.90;77.00
16521;DHT22;8373;48.110;11.522;2023-03-31T04:02:35;13.00;78.00
16521;DHT22;8373;48.110;11.522;2023-03-31T04:05:02;13.20;77.80
16521;DHT22;8373;48.110;11.522;2023-03-31T04:07:30;13.20;77.80
16521;DHT22;8373;48.110;11.522;2023-03-31T04:09:57;13.30;77.10
16521;DHT22;8373;48.110;11.522;2023-03-31T04:12:24;13.30;76.80
16521;DHT22;8373;48.110;11.522;2023-03-31T04:14:50;13.30;76.90
16521;DHT22;8373;48.110;11.522;2023-03-31T04:17:17;13.40;77.20
16521;DHT22;8373;48.110;11.522;2023-03-31T04:19:59;13.40;77.00
16521;DHT22;8373;48.110;11.522;2023-03-31T04:22:30;13.40;77.00
16521;DHT22;8373;48.110;11.522;2023-03-31T04:25:00;13.50;77.20
16521;DHT22;8373;48.110;11.522;2023-03-31T04:27:27;13.50;77.40
16521;DHT22;8373;48.110;11.522;2023-03-31T04:29:55;13.50;77.70
16521;DHT22;8373;48.110;11.522;2023-03-31T04:32:23;13.60;78.10
16521;DHT22;8373;48.110;11.522;2023-03-31T04:34:50;13.60;77.70
16521;DHT22;8373;48.110;11.522;2023-03-31T04:37:28;13.60;77.20
16521;DHT22;8373;48.110;11.522;2023-03-31T04:39:59;13.60;77.70
16521;DHT22;8373;48.110;11.522;2023-03-31T04:42:32;13.60;77.80
16521;DHT22;8373;48.110;11.522;2023-03-31T04:44:59;13.60;77.60
16521;DHT22;8373;48.110;11.522;2023-03-31T04:47:26;13.70;77.70
16521;DHT22;8373;48.110;11.522;2023-03-31T04:49:53;13.60;78.00
16521;DHT22;8373;48.110;11.522;2023-03-31T04:52:20;13.60;78.20
16521;DHT22;8373;48.110;11.522;2023-03-31T04:54:49;13.60;78.20
16521;DHT22;8373;48.110;11.522;2023-03-31T04:57:16;13.60;78.10
16521;DHT22;8373;48.110;11.522;2023-03-31T04:59:42;13.40;77.60
16521;DHT22;8373;48.110;11.522;2023-03-31T05:02:10;13.30;78.50
16521;DHT22;8373;48.110;11.522;2023-03-31T05:04:37;13.10;79.10
16521;DHT22;8373;48.110;11.522;2023-03-31T05:07:04;13.00;79.50
16521;DHT22;8373;48.110;11.522;2023-03-31T05:09:31;12.90;79.50
16521;DHT22;8373;48.110;11.522;2023-03-31T05:11:59;12.70;79.80
16521;DHT22;8373;48.110;11.522;2023-03-31T05:14:26;12.60;80.50
16521;DHT22;8373;48.110;11.522;2023-03-31T05:16:54;12.50;80.90
16521;DHT22;8373;48.110;11.522;2023-03-31T05:19:22;12.60;81.50
16521;DHT22;8373;48.110;11.522;2023-03-31T05:21:49;12.60;81.90
16521;DHT22;8373;48.110;11.522;2023-03-31T05:24:16;12.70;81.50
16521;DHT22;8373;48.110;11.522;2023-03-31T05:26:43;12.70;81.20
16521;DHT22;8373;48.110;11.522;2023-03-31T05:29:15;12.80;81.10
16521;DHT22;8373;48.110;11.522;2023-03-31T05:31:42;12.80;80.70
16521;DHT22;8373;48.110;11.522;2023-03-31T05:34:09;12.80;80.90
16521;DHT22;8373;48.110;11.522;2023-03-31T05:36:36;12.80;80.40
16521;DHT22;8373;48.110;11.522;2023-03-31T05:39:03;12.70;80.80
16521;DHT22;8373;48.110;11.522;2023-03-31T05:41:30;12.80;81.00
16521;DHT22;8373;48.110;11.522;2023-03-31T05:43:57;12.70;80.70
16521;DHT22;8373;48.110;11.522;2023-03-31T05:46:25;12.60;80.50
16521;DHT22;8373;48.110;11.522;2023-03-31T05:48:52;12.50;80.80
16521;DHT22;8373;48.110;11.522;2023-03-31T05:51:21;12.30;82.60
16521;DHT22;8373;48.110;11.522;2023-03-31T05:53:47;12.30;83.90
16521;DHT22;8373;48.110;11.522;2023-03-31T05:56:15;12.40;84.10
16521;DHT22;8373;48.110;11.522;2023-03-31T05:58:42;12.40;83.30
16521;DHT22;8373;48.110;11.522;2023-03-31T06:01:10;12.60;83.40
16521;DHT22;8373;48.110;11.522;2023-03-31T06:03:40;12.70;83.10
16521;DHT22;8373;48.110;11.522;2023-03-31T06:06:07;12.80;82.80
16521;DHT22;8373;48.110;11.522;2023-03-31T06:08:35;12.90;82.50
16521;DHT22;8373;48.110;11.522;2023-03-31T06:11:04;13.00;82.10
16521;DHT22;8373;48.110;11.522;2023-03-31T06:13:32;13.10;81.90
16521;DHT22;8373;48.110;11.522;2023-03-31T06:15:59;13.00;81.20
16521;DHT22;8373;48.110;11.522;2023-03-31T06:18:27;12.80;82.00
16521;DHT22;8373;48.110;11.522;2023-03-31T06:20:56;12.80;82.10
16521;DHT22;8373;48.110;11.522;2023-03-31T06:23:24;12.80;81.90
16521;DHT22;8373;48.110;11.522;2023-03-31T06:25:51;12.70;82.40
16521;DHT22;8373;48.110;11.522;2023-03-31T06:28:18;12.70;82.20
16521;DHT22;8373;48.110;11.522;2023-03-31T06:30:46;12.70;82.40
16521;DHT22;8373;48.110;11.522;2023-03-31T06:33:13;12.70;82.60
16521;DHT22;8373;48.110;11.522;2023-03-31T06:35:40;12.60;82.90
16521;DHT22;8373;48.110;11.522;2023-03-31T06:38:09;12.40;84.50
16521;DHT22;8373;48.110;11.522;2023-03-31T06:40:36;12.30;86.60
16521;DHT22;8373;48.110;11.522;2023-03-31T06:43:03;12.30;86.10
16521;DHT22;8373;48.110;11.522;2023-03-31T06:45:29;12.40;86.00
16521;DHT22;8373;48.110;11.522;2023-03-31T06:47:56;12.50;85.90
16521;DHT22;8373;48.110;11.522;2023-03-31T06:50:23;12.60;85.40
16521;DHT22;8373;48.110;11.522;2023-03-31T06:52:50;12.60;85.10
16521;DHT22;8373;48.110;11.522;2023-03-31T06:55:21;12.60;85.00
16521;DHT22;8373;48.110;11.522;2023-03-31T06:57:47;12.60;85.30
16521;DHT22;8373;48.110;11.522;2023-03-31T07:00:15;12.80;84.70
16521;DHT22;8373;48.110;11.522;2023-03-31T07:02:42;12.90;84.30
16521;DHT22;8373;48.110;11.522;2023-03-31T07:05:09;13.00;84.50
16521;DHT22;8373;48.110;11.522;2023-03-31T07:07:36;13.20;83.60
16521;DHT22;8373;48.110;11.522;2023-03-31T07:10:04;13.30;83.10
16521;DHT22;8373;48.110;11.522;2023-03-31T07:12:33;13.30;83.20
16521;DHT22;8373;48.110;11.522;2023-03-31T07:15:00;13.30;82.80
16521;DHT22;8373;48.110;11.522;2023-03-31T07:17:27;13.20;82.20
16521;DHT22;8373;48.110;11.522;2023-03-31T07:19:54;13.30;82.50
16521;DHT22;8373;48.110;11.522;2023-03-31T07:22:21;13.20;82.60
16521;DHT22;8373;48.110;11.522;2023-03-31T07:24:48;13.20;83.10
16521;DHT22;8373;48.110;11.522;2023-03-31T07:27:15;13.00;82.30
16521;DHT22;8373;48.110;11.522;2023-03-31T07:29:43;13.00;84.00
16521;DHT22;8373;48.110;11.522;2023-03-31T07:32:10;13.10;84.80
16521;DHT22;8373;48.110;11.522;2023-03-31T07:34:37;13.10;84.70
16521;DHT22;8373;48.110;11.522;2023-03-31T07:37:05;13.20;84.40
16521;DHT22;8373;48.110;11.522;2023-03-31T07:39:32;13.40;83.80
16521;DHT22;8373;48.110;11.522;2023-03-31T07:41:59;13.30;83.50
16521;DHT22;8373;48.110;11.522;2023-03-31T07:44:26;13.50;83.40
16521;DHT22;8373;48.110;11.522;2023-03-31T07:46:54;13.50;83.20
16521;DHT22;8373;48.110;11.522;2023-03-31T07:49:23;13.50;83.10
16521;DHT22;8373;48.110;11.522;2023-03-31T07:51:49;13.50;83.30
16521;DHT22;8373;48.110;11.522;2023-03-31T07:54:16;13.60;83.30
16521;DHT22;8373;48.110;11.522;2023-03-31T07:56:43;13.60;82.90
16521;DHT22;8373;48.110;11.522;2023-03-31T07:59:10;13.60;83.40
16521;DHT22;8373;48.110;11.522;2023-03-31T08:01:37;13.70;83.90
16521;DHT22;8373;48.110;11.522;2023-03-31T08:04:06;13.80;83.30
16521;DHT22;8373;48.110;11.522;2023-03-31T08:06:33;14.00;82.40
16521;DHT22;8373;48.110;11.522;2023-03-31T08:09:00;14.10;82.00
16521;DHT22;8373;48.110;11.522;2023-03-31T08:11:27;14.20;81.30
16521;DHT22;8373;48.110;11.522;2023-03-31T08:13:54;14.20;81.20
16521;DHT22;8373;48.110;11.522;2023-03-31T08:16:21;14.10;81.10
16521;DHT22;8373;48.110;11.522;2023-03-31T08:18:48;14.00;81.20
16521;DHT22;8373;48.110;11.522;2023-03-31T08:21:16;13.70;81.50
16521;DHT22;8373;48.110;11.522;2023-03-31T08:23:43;13.40;82.80
16521;DHT22;8373;48.110;11.522;2023-03-31T08:26:12;13.20;84.40
16521;DHT22;8373;48.110;11.522;2023-03-31T08:28:39;13.30;84.40
16521;DHT22;8373;48.110;11.522;2023-03-31T08:31:06;13.40;83.80
16521;DHT22;8373;48.110;11.522;2023-03-31T08:33:35;13.40;83.20
16521;DHT22;8373;48.110;11.522;2023-03-31T08:36:02;13.30;83.70
16521;DHT22;8373;48.110;11.522;2023-03-31T08:38:31;13.30;83.70
16521;DHT22;8373;48.110;11.522;2023-03-31T08:40:59;13.00;83.40
16521;DHT22;8373;48.110;11.522;2023-03-31T08:43:29;12.70;85.10
16521;DHT22;8373;48.110;11.522;2023-03-31T08:45:57;12.60;86.30
16521;DHT22;8373;48.110;11.522;2023-03-31T08:48:28;12.60;87.30
16521;DHT22;8373;48.110;11.522;2023-03-31T08:50:59;12.60;85.70
16521;DHT22;8373;48.110;11.522;2023-03-31T08:53:28;12.70;83.80
16521;DHT22;8373;48.110;11.522;2023-03-31T08:55:58;12.60;80.70
16521;DHT22;8373;48.110;11.522;2023-03-31T08:58:33;12.70;80.00
16521;DHT22;8373;48.110;11.522;2023-03-31T09:01:07;12.80;79.60
16521;DHT22;8373;48.110;11.522;2023-03-31T09:03:43;12.80;79.00
16521;DHT22;8373;48.110;11.522;2023-03-31T09:06:13;12.80;78.30
16521;DHT22;8373;48.110;11.522;2023-03-31T09:08:41;13.00;78.80
16521;DHT22;8373;48.110;11.522;2023-03-31T09:11:25;13.10;78.50
16521;DHT22;8373;48.110;11.522;2023-03-31T09:14:25;13.30;78.30
16521;DHT22;8373;48.110;11.522;2023-03-31T09:17:06;13.40;78.10
16521;DHT22;8373;48.110;11.522;2023-03-31T09:19:39;13.70;78.30
16521;DHT22;8373;48.110;11.522;2023-03-31T09:22:13;13.80;77.30
16521;DHT22;8373;48.110;11.522;2023-03-31T09:24:47;14.30;77.00
16521;DHT22;8373;48.110;11.522;2023-03-31T09:27:19;15.00;77.10
16521;DHT22;8373;48.110;11.522;2023-03-31T09:29:49;16.10;74.70
16521;DHT22;8373;48.110;11.522;2023-03-31T09:32:20;18.10;71.50
16521;DHT22;8373;48.110;11.522;2023-03-31T09:34:51;21.30;63.40
16521;DHT22;8373;48.110;11.522;2023-03-31T09:37:18;23.30;53.60
16521;DHT22;8373;48.110;11.522;2023-03-31T09:39:45;23.50;49.80
16521;DHT22;8373;48.110;11.522;2023-03-31T09:42:13;23.20;48.10
16521;DHT22;8373;48.110;11.522;2023-03-31T09:44:43;21.80;48.20
16521;DHT22;8373;48.110;11.522;2023-03-31T09:47:15;22.20;51.10
16521;DHT22;8373;48.110;11.522;2023-03-31T09:49:45;23.80;49.70
16521;DHT22;8373;48.110;11.522;2023-03-31T09:52:18;24.50;47.50
16521;DHT22;8373;48.110;11.522;2023-03-31T09:54:49;24.60;47.00
16521;DHT22;8373;48.110;11.522;2023-03-31T09:57:24;23.40;46.50
16521;DHT22;8373;48.110;11.522;2023-03-31T09:59:53;23.00;47.20
16521;DHT22;8373;48.110;11.522;2023-03-31T10:02:35;22.50;48.00
16521;DHT22;8373;48.110;11.522;2023-03-31T10:05:03;21.50;48.60
16521;DHT22;8373;48.110;11.522;2023-03-31T10:07:31;20.50;49.70
16521;DHT22;8373;48.110;11.522;2023-03-31T10:09:59;19.90;51.60
16521;DHT22;8373;48.110;11.522;2023-03-31T10:12:27;19.20;52.70
16521;DHT22;8373;48.110;11.522;2023-03-31T10:15:13;19.60;53.70
16521;DHT22;8373;48.110;11.522;2023-03-31T10:17:43;20.40;54.30
16521;DHT22;8373;48.110;11.522;2023-03-31T10:20:22;20.90;52.00
16521;DHT22;8373;48.110;11.522;2023-03-31T10:22:53;21.00;52.60
16521;DHT22;8373;48.110;11.522;2023-03-31T10:25:22;20.60;52.00
16521;DHT22;8373;48.110;11.522;2023-03-31T10:27:52;20.10;53.30
16521;DHT22;8373;48.110;11.522;2023-03-31T10:30:23;19.60;54.00
16521;DHT22;8373;48.110;11.522;2023-03-31T10:32:51;19.20;55.30
16521;DHT22;8373;48.110;11.522;2023-03-31T10:35:24;19.20;55.50
16521;DHT22;8373;48.110;11.522;2023-03-31T10:37:55;20.90;55.50
16521;DHT22;8373;48.110;11.522;2023-03-31T10:40:25;22.20;50.50
16521;DHT22;8373;48.110;11.522;2023-03-31T10:43:00;22.80;49.60
16521;DHT22;8373;48.110;11.522;2023-03-31T10:45:30;23.10;49.10
16521;DHT22;8373;48.110;11.522;2023-03-31T10:48:02;22.60;47.80
16521;DHT22;8373;48.110;11.522;2023-03-31T10:50:31;21.90;48.10
16521;DHT22;8373;48.110;11.522;2023-03-31T10:53:03;21.20;49.20
16521;DHT22;8373;48.110;11.522;2023-03-31T10:55:37;20.10;50.70
16521;DHT22;8373;48.110;11.522;2023-03-31T10:58:22;19.20;53.00
16521;DHT22;8373;48.110;11.522;2023-03-31T11:01:03;18.80;54.30
16521;DHT22;8373;48.110;11.522;2023-03-31T11:03:57;18.60;54.70
16521;DHT22;8373;48.110;11.522;2023-03-31T11:06:29;18.20;55.30
16521;DHT22;8373;48.110;11.522;2023-03-31T11:09:08;17.80;56.20
16521;DHT22;8373;48.110;11.522;2023-03-31T11:11:55;17.40;57.10
16521;DHT22;8373;48.110;11.522;2023-03-31T11:14:32;17.00;57.60
16521;DHT22;8373;48.110;11.522;2023-03-31T11:17:12;16.70;57.90
16521;DHT22;8373;48.110;11.522;2023-03-31T11:19:49;16.40;58.80
16521;DHT22;8373;48.110;11.522;2023-03-31T11:22:25;16.10;60.50
16521;DHT22;8373;48.110;11.522;2023-03-31T11:25:16;15.90;62.60
16521;DHT22;8373;48.110;11.522;2023-03-31T11:28:09;15.50;65.30
16521;DHT22;8373;48.110;11.522;2023-03-31T11:30:45;14.50;64.20
16521;DHT22;8373;48.110;11.522;2023-03-31T11:33:32;14.10;66.50
16521;DHT22;8373;48.110;11.522;2023-03-31T11:36:15;14.00;68.30
16521;DHT22;8373;48.110;11.522;2023-03-31T11:38:57;13.70;66.70
16521;DHT22;8373;48.110;11.522;2023-03-31T11:41:32;13.40;68.00
16521;DHT22;8373;48.110;11.522;2023-03-31T11:44:01;13.40;69.90
16521;DHT22;8373;48.110;11.522;2023-03-31T11:46:36;13.40;70.00
16521;DHT22;8373;48.110;11.522;2023-03-31T11:49:11;13.50;70.30
16521;DHT22;8373;48.110;11.522;2023-03-31T11:51:46;13.60;70.30
16521;DHT22;8373;48.110;11.522;2023-03-31T11:54:17;13.60;70.10
16521;DHT22;8373;48.110;11.522;2023-03-31T11:56:45;13.70;70.30
16521;DHT22;8373;48.110;11.522;2023-03-31T11:59:15;13.80;70.50
16521;DHT22;8373;48.110;11.522;2023-03-31T12:01:47;13.90;69.90
16521;DHT22;8373;48.110;11.522;2023-03-31T12:04:27;14.00;69.80
16521;DHT22;8373;48.110;11.522;2023-03-31T12:07:02;14.40;69.10
16521;DHT22;8373;48.110;11.522;2023-03-31T12:09:34;14.80;67.60
16521;DHT22;8373;48.110;11.522;2023-03-31T12:12:06;16.10;66.00
16521;DHT22;8373;48.110;11.522;2023-03-31T12:14:39;17.10;62.10
16521;DHT22;8373;48.110;11.522;2023-03-31T12:17:10;18.60;60.60
16521;DHT22;8373;48.110;11.522;2023-03-31T12:19:45;21.00;56.60
16521;DHT22;8373;48.110;11.522;2023-03-31T12:22:16;22.00;51.00
16521;DHT22;8373;48.110;11.522;2023-03-31T12:24:44;21.30;48.80
16521;DHT22;8373;48.110;11.522;2023-03-31T12:27:15;20.30;50.40
16521;DHT22;8373;48.110;11.522;2023-03-31T12:29:47;19.20;51.40
16521;DHT22;8373;48.110;11.522;2023-03-31T12:32:19;18.60;54.30
16521;DHT22;8373;48.110;11.522;2023-03-31T12:34:56;18.70;54.40
16521;DHT22;8373;48.110;11.522;2023-03-31T12:40:40;18.10;55.00
16521;DHT22;8373;48.110;11.522;2023-03-31T12:43:22;17.60;55.90
16521;DHT22;8373;48.110;11.522;2023-03-31T12:45:56;16.90;56.70
16521;DHT22;8373;48.110;11.522;2023-03-31T12:48:50;16.40;58.40
16521;DHT22;8373;48.110;11.522;2023-03-31T12:51:35;16.20;58.80
16521;DHT22;8373;48.110;11.522;2023-03-31T12:54:16;16.10;59.90
16521;DHT22;8373;48.110;11.522;2023-03-31T12:57:11;16.00;60.30
16521;DHT22;8373;48.110;11.522;2023-03-31T12:59:42;16.00;60.10
16521;DHT22;8373;48.110;11.522;2023-03-31T13:02:24;16.00;58.10
16521;DHT22;8373;48.110;11.522;2023-03-31T13:04:51;16.00;57.60
16521;DHT22;8373;48.110;11.522;2023-03-31T13:07:40;15.70;56.90
16521;DHT22;8373;48.110;11.522;2023-03-31T13:10:26;15.60;53.60
16521;DHT22;8373;48.110;11.522;2023-03-31T13:13:03;15.20;52.70
16521;DHT22;8373;48.110;11.522;2023-03-31T13:15:31;15.00;51.60
16521;DHT22;8373;48.110;11.522;2023-03-31T13:17:59;14.90;50.90
16521;DHT22;8373;48.110;11.522;2023-03-31T13:20:32;14.70;50.00
16521;DHT22;8373;48.110;11.522;2023-03-31T13:23:12;14.60;51.20
16521;DHT22;8373;48.110;11.522;2023-03-31T13:25:45;14.60;51.70
16521;DHT22;8373;48.110;11.522;2023-03-31T13:28:23;14.40;53.90
16521;DHT22;8373;48.110;11.522;2023-03-31T13:30:53;14.40;53.20
16521;DHT22;8373;48.110;11.522;2023-03-31T13:33:24;14.70;53.30
16521;DHT22;8373;48.110;11.522;2023-03-31T13:35:57;14.90;52.70
16521;DHT22;8373;48.110;11.522;2023-03-31T13:38:39;14.90;52.10
16521;DHT22;8373;48.110;11.522;2023-03-31T13:41:22;15.30;53.20
16521;DHT22;8373;48.110;11.522;2023-03-31T13:44:23;15.80;52.00
16521;DHT22;8373;48.110;11.522;2023-03-31T13:47:23;16.40;50.40
16521;DHT22;8373;48.110;11.522;2023-03-31T13:50:08;17.00;49.30
16521;DHT22;8373;48.110;11.522;2023-03-31T13:52:48;17.30;47.90
16521;DHT22;8373;48.110;11.522;2023-03-31T13:55:32;17.50;47.20
16521;DHT22;8373;48.110;11.522;2023-03-31T13:58:24;17.40;46.50
16521;DHT22;8373;48.110;11.522;2023-03-31T14:01:05;17.30;46.70
16521;DHT22;8373;48.110;11.522;2023-03-31T14:03:51;17.40;46.90
16521;DHT22;8373;48.110;11.522;2023-03-31T14:06:26;17.30;47.00
16521;DHT22;8373;48.110;11.522;2023-03-31T14:08:59;17.00;47.40
16521;DHT22;8373;48.110;11.522;2023-03-31T14:11:30;16.80;47.40
16521;DHT22;8373;48.110;11.522;2023-03-31T14:13:58;16.60;48.00
16521;DHT22;8373;48.110;11.522;2023-03-31T14:16:26;16.30;48.50
16521;DHT22;8373;48.110;11.522;2023-03-31T14:19:00;16.10;49.30
16521;DHT22;8373;48.110;11.522;2023-03-31T14:21:31;15.80;50.00
16521;DHT22;8373;48.110;11.522;2023-03-31T14:24:07;15.70;51.20
16521;DHT22;8373;48.110;11.522;2023-03-31T14:26:46;15.70;51.90
16521;DHT22;8373;48.110;11.522;2023-03-31T14:29:22;15.40;52.20
16521;DHT22;8373;48.110;11.522;2023-03-31T14:31:58;15.20;53.00
16521;DHT22;8373;48.110;11.522;2023-03-31T14:34:44;15.00;53.40
16521;DHT22;8373;48.110;11.522;2023-03-31T14:37:17;14.70;53.70
16521;DHT22;8373;48.110;11.522;2023-03-31T14:39:47;14.60;55.30
16521;DHT22;8373;48.110;11.522;2023-03-31T14:42:18;14.60;57.20
16521;DHT22;8373;48.110;11.522;2023-03-31T14:44:47;14.10;57.60
16521;DHT22;8373;48.110;11.522;2023-03-31T14:47:15;13.50;56.90
16521;DHT22;8373;48.110;11.522;2023-03-31T14:49:47;13.30;56.70
16521;DHT22;8373;48.110;11.522;2023-03-31T14:52:16;13.10;56.60
16521;DHT22;8373;48.110;11.522;2023-03-31T14:54:44;13.20;57.30
16521;DHT22;8373;48.110;11.522;2023-03-31T14:57:15;13.10;55.80
16521;DHT22;8373;48.110;11.522;2023-03-31T14:59:45;13.20;56.60
16521;DHT22;8373;48.110;11.522;2023-03-31T15:02:15;13.30;55.90
16521;DHT22;8373;48.110;11.522;2023-03-31T15:04:43;13.20;56.30
16521;DHT22;8373;48.110;11.522;2023-03-31T15:07:14;13.50;57.10
16521;DHT22;8373;48.110;11.522;2023-03-31T15:09:47;14.20;57.30
16521;DHT22;8373;48.110;11.522;2023-03-31T15:12:16;14.50;55.50
16521;DHT22;8373;48.110;11.522;2023-03-31T15:14:47;14.70;54.80
16521;DHT22;8373;48.110;11.522;2023-03-31T15:17:20;14.80;54.90
16521;DHT22;8373;48.110;11.522;2023-03-31T15:19:52;14.90;53.80
16521;DHT22;8373;48.110;11.522;2023-03-31T15:22:22;15.00;52.90
16521;DHT22;8373;48.110;11.522;2023-03-31T15:24:49;14.80;52.30
16521;DHT22;8373;48.110;11.522;2023-03-31T15:27:19;14.60;52.40
16521;DHT22;8373;48.110;11.522;2023-03-31T15:29:53;14.40;53.60
16521;DHT22;8373;48.110;11.522;2023-03-31T15:32:24;14.10;54.00
16521;DHT22;8373;48.110;11.522;2023-03-31T15:34:52;14.10;54.70
16521;DHT22;8373;48.110;11.522;2023-03-31T15:37:21;13.90;54.50
16521;DHT22;8373;48.110;11.522;2023-03-31T15:39:55;13.90;55.10
16521;DHT22;8373;48.110;11.522;2023-03-31T15:42:23;13.80;54.90
16521;DHT22;8373;48.110;11.522;2023-03-31T15:44:55;13.70;55.30
16521;DHT22;8373;48.110;11.522;2023-03-31T15:47:27;13.60;55.80
16521;DHT22;8373;48.110;11.522;2023-03-31T15:49:57;13.50;56.20
16521;DHT22;8373;48.110;11.522;2023-03-31T15:52:28;13.50;56.60
16521;DHT22;8373;48.110;11.522;2023-03-31T15:54:58;13.40;56.60
16521;DHT22;8373;48.110;11.522;2023-03-31T15:57:31;13.30;57.00
16521;DHT22;8373;48.110;11.522;2023-03-31T16:00:00;13.30;57.10
16521;DHT22;8373;48.110;11.522;2023-03-31T16:02:41;13.30;57.30
16521;DHT22;8373;48.110;11.522;2023-03-31T16:05:23;13.20;57.40
16521;DHT22;8373;48.110;11.522;2023-03-31T16:07:54;13.10;57.80
16521;DHT22;8373;48.110;11.522;2023-03-31T16:10:22;13.20;57.90
16521;DHT22;8373;48.110;11.522;2023-03-31T16:12:52;13.30;57.60
16521;DHT22;8373;48.110;11.522;2023-03-31T16:15:29;13.30;57.20
16521;DHT22;8373;48.110;11.522;2023-03-31T16:18:00;13.40;57.30